Time;durP1;ratioP1;P1;durP2;ratioP2;P2;SDS_P1;SDS_P2;PMS_P1;PMS_P2;Temp;Humidity;BMP_temperature;BMP_pressure;BME280_temperature;BME280_humidity;BME280_pressure;Samples;Min_cycle;Max_cycle;Signal;HPM_P1;HPM_P2
2023/04/17 00:01:07;;;;;;;18.05;8.85;;;;;;;;;;4910693;28;92787;-86
2023/04/17 00:03:33;;;;;;;17.77;9.00;;;;;;;;;;4910233;28;94162;-87
2023/04/17 00:06:00;;;;;;;17.10;9.27;;;;;;;;;;4929517;28;92528;-86
2023/04/17 00:08:27;;;;;;;17.77;9.27;;;;;;;;;;4912655;28;92852;-87
2023/04/17 00:10:54;;;;;;;19.52;9.57;;;;;;;;;;4910343;28;94187;-87
2023/04/17 00:13:33;;;;;;;;;;;;;;;;;;4915706;28;92790;-87
2023/04/17 00:16:00;;;;;;;19.45;9.25;;;;;;;;;;4926873;28;114124;-87
2023/04/17 00:18:26;;;;;;;22.58;9.38;;;;;;;;;;4926275;28;92653;-86
2023/04/17 00:20:53;;;;;;;18.83;9.68;;;;;;;;;;4911017;28;92782;-86
2023/04/17 00:23:20;;;;;;;17.70;9.07;;;;;;;;;;4916332;28;93176;-86
2023/04/17 00:25:46;;;;;;;19.05;9.75;;;;;;;;;;4919652;28;92617;-87
2023/04/17 00:28:12;;;;;;;19.83;9.23;;;;;;;;;;4912702;28;96188;-86
2023/04/17 00:30:39;;;;;;;18.60;9.60;;;;;;;;;;4925074;28;92884;-86
2023/04/17 00:33:06;;;;;;;20.55;9.88;;;;;;;;;;4927274;28;95445;-86
2023/04/17 00:35:32;;;;;;;19.60;9.18;;;;;;;;;;4915073;28;92985;-87
2023/04/17 00:37:59;;;;;;;17.25;9.65;;;;;;;;;;4912156;28;92472;-88
2023/04/17 00:40:25;;;;;;;18.08;9.38;;;;;;;;;;4931301;28;95557;-90
2023/04/17 00:42:55;;;;;;;22.55;10.15;;;;;;;;;;4947496;28;96044;-87
2023/04/17 00:45:21;;;;;;;18.17;9.98;;;;;;;;;;4920790;28;93097;-87
2023/04/17 00:47:49;;;;;;;19.30;9.35;;;;;;;;;;4929921;28;92824;-85
2023/04/17 00:50:16;;;;;;;21.73;10.52;;;;;;;;;;4942358;28;94447;-86
2023/04/17 00:52:43;;;;;;;21.20;9.50;;;;;;;;;;4940288;28;95489;-86
2023/04/17 00:55:10;;;;;;;23.10;9.60;;;;;;;;;;4938888;28;95965;-88
2023/04/17 00:57:36;;;;;;;18.88;8.88;;;;;;;;;;4933217;28;91827;-88
2023/04/17 01:00:04;;;;;;;16.38;8.90;;;;;;;;;;4934369;28;92891;-89
2023/04/17 01:02:31;;;;;;;20.10;9.48;;;;;;;;;;4950865;28;100841;-88
2023/04/17 01:04:57;;;;;;;19.30;8.80;;;;;;;;;;4934581;28;94930;-89
2023/04/17 01:07:25;;;;;;;23.25;8.98;;;;;;;;;;4922414;28;98069;-90
2023/04/17 01:09:52;;;;;;;17.23;8.40;;;;;;;;;;4933239;28;94247;-89
2023/04/17 01:12:22;;;;;;;15.55;8.00;;;;;;;;;;4950298;28;92693;-89
2023/04/17 01:14:50;;;;;;;17.08;8.00;;;;;;;;;;4944253;28;93129;-89
2023/04/17 01:17:20;;;;;;;16.77;7.68;;;;;;;;;;4947026;28;92503;-89
2023/04/17 01:19:48;;;;;;;13.57;7.30;;;;;;;;;;4960236;28;94329;-89
2023/04/17 01:22:23;;;;;;;15.00;7.68;;;;;;;;;;4948169;28;91679;-89
2023/04/17 01:24:55;;;;;;;14.27;7.57;;;;;;;;;;4966721;28;92631;-89
2023/04/17 01:27:23;;;;;;;14.23;7.47;;;;;;;;;;4949685;28;95136;-88
2023/04/17 01:29:50;;;;;;;17.00;7.25;;;;;;;;;;4947100;28;95396;-90
2023/04/17 01:32:17;;;;;;;14.27;7.07;;;;;;;;;;4962329;28;92593;-88
2023/04/17 01:34:44;;;;;;;15.38;7.25;;;;;;;;;;4963025;28;94345;-88
2023/04/17 01:37:10;;;;;;;15.27;7.15;;;;;;;;;;4944336;28;92543;-87
2023/04/17 01:39:39;;;;;;;13.82;6.88;;;;;;;;;;4942022;28;92776;-87
2023/04/17 01:42:05;;;;;;;12.00;6.38;;;;;;;;;;4960236;28;92516;-87
2023/04/17 01:44:32;;;;;;;14.98;6.70;;;;;;;;;;4937249;28;92422;-88
2023/04/17 01:46:59;;;;;;;13.52;6.25;;;;;;;;;;4932395;28;91853;-87
2023/04/17 01:49:25;;;;;;;17.23;6.72;;;;;;;;;;4931247;28;92844;-87
2023/04/17 01:51:52;;;;;;;12.05;6.30;;;;;;;;;;4935374;28;92568;-87
2023/04/17 01:54:20;;;;;;;11.20;5.85;;;;;;;;;;4928084;28;96075;-87
2023/04/17 01:56:46;;;;;;;14.90;6.18;;;;;;;;;;4929982;28;92933;-88
2023/04/17 01:59:13;;;;;;;17.50;6.93;;;;;;;;;;4910214;28;95632;-87
2023/04/17 02:01:39;;;;;;;14.73;6.97;;;;;;;;;;4926738;28;95732;-87
2023/04/17 02:04:06;;;;;;;14.82;6.80;;;;;;;;;;4928853;28;92655;-87
2023/04/17 02:06:33;;;;;;;13.68;6.57;;;;;;;;;;4927300;28;94639;-87
2023/04/17 02:09:00;;;;;;;11.93;6.03;;;;;;;;;;4928449;28;93184;-87
2023/04/17 02:11:26;;;;;;;12.38;6.35;;;;;;;;;;4929151;28;91882;-87
2023/04/17 02:13:53;;;;;;;11.80;6.45;;;;;;;;;;4966642;28;94318;-86
2023/04/17 02:16:21;;;;;;;12.15;6.38;;;;;;;;;;4962051;28;94963;-88
2023/04/17 02:18:48;;;;;;;12.50;6.25;;;;;;;;;;4944717;28;94916;-87
2023/04/17 02:21:15;;;;;;;12.43;6.30;;;;;;;;;;4935316;28;93353;-87
2023/04/17 02:23:42;;;;;;;12.23;6.28;;;;;;;;;;4929331;28;92883;-86
2023/04/17 02:26:08;;;;;;;11.90;6.20;;;;;;;;;;4905911;28;95595;-86
2023/04/17 02:28:35;;;;;;;12.13;5.68;;;;;;;;;;4942864;28;95895;-86
2023/04/17 02:31:07;;;;;;;21.08;6.40;;;;;;;;;;4911622;28;92599;-88
2023/04/17 02:33:35;;;;;;;14.38;6.07;;;;;;;;;;4933687;28;92511;-89
2023/04/17 02:36:03;;;;;;;14.15;6.10;;;;;;;;;;4953664;28;95325;-87
2023/04/17 02:38:36;;;;;;;13.88;6.35;;;;;;;;;;4953752;28;93957;-88
2023/04/17 02:41:04;;;;;;;14.38;6.00;;;;;;;;;;4933830;28;96324;-87
2023/04/17 02:43:31;;;;;;;15.32;5.85;;;;;;;;;;4945019;28;95265;-87
2023/04/17 02:45:58;;;;;;;13.45;6.32;;;;;;;;;;4928709;28;96529;-87
2023/04/17 02:48:25;;;;;;;;;;;;;;;;;;4937040;28;96128;-88
2023/04/17 02:50:52;;;;;;;13.82;6.20;;;;;;;;;;4923973;28;97745;-87
2023/04/17 02:53:19;;;;;;;;;;;;;;;;;;4931936;28;93365;-86
2023/04/17 02:55:47;;;;;;;13.55;6.65;;;;;;;;;;4949323;28;95478;-87
2023/04/17 02:58:15;;;;;;;11.90;6.10;;;;;;;;;;4946362;28;93332;-87
2023/04/17 03:00:42;;;;;;;12.55;6.43;;;;;;;;;;4949302;28;95688;-87
2023/04/17 03:03:13;;;;;;;13.82;6.78;;;;;;;;;;4922264;28;92583;-87
2023/04/17 03:05:40;;;;;;;12.82;6.30;;;;;;;;;;4929021;28;96061;-87
2023/04/17 03:08:07;;;;;;;13.43;6.15;;;;;;;;;;4919015;28;97802;-86
2023/04/17 03:10:42;;;;;;;13.48;6.68;;;;;;;;;;4944704;28;93282;-87
2023/04/17 03:13:09;;;;;;;13.30;6.53;;;;;;;;;;4931080;28;92983;-87
2023/04/17 03:15:35;;;;;;;13.48;7.13;;;;;;;;;;4948425;28;96004;-86
2023/04/17 03:18:02;;;;;;;12.02;6.47;;;;;;;;;;4945712;28;92783;-87
2023/04/17 03:20:28;;;;;;;12.18;6.55;;;;;;;;;;4937204;28;95744;-88
2023/04/17 03:22:55;;;;;;;13.27;6.40;;;;;;;;;;4949379;28;99474;-88
2023/04/17 03:25:21;;;;;;;13.02;6.65;;;;;;;;;;4931353;28;93297;-88
2023/04/17 03:27:51;;;;;;;12.27;6.55;;;;;;;;;;4930942;28;92898;-88
2023/04/17 03:30:20;;;;;;;14.20;6.70;;;;;;;;;;4945276;28;92514;-87
2023/04/17 03:32:49;;;;;;;11.77;6.43;;;;;;;;;;4939684;28;95404;-87
2023/04/17 03:35:16;;;;;;;13.07;6.95;;;;;;;;;;4945004;28;95505;-86
2023/04/17 03:37:43;;;;;;;12.93;6.75;;;;;;;;;;4913645;28;93214;-86
2023/04/17 03:40:11;;;;;;;12.73;6.70;;;;;;;;;;4928225;28;95667;-86
2023/04/17 03:42:42;;;;;;;13.10;6.90;;;;;;;;;;4944985;28;95533;-86
2023/04/17 03:45:09;;;;;;;13.30;7.32;;;;;;;;;;4914509;28;92549;-84
2023/04/17 03:47:36;;;;;;;16.35;8.55;;;;;;;;;;4945345;28;95995;-85
2023/04/17 03:50:03;;;;;;;16.55;8.13;;;;;;;;;;4946601;28;91900;-87
2023/04/17 03:52:35;;;;;;;14.65;8.05;;;;;;;;;;4901819;28;99508;-88
2023/04/17 03:55:03;;;;;;;18.40;7.88;;;;;;;;;;4935030;28;96255;-87
2023/04/17 03:57:30;;;;;;;15.13;7.53;;;;;;;;;;4929964;28;95497;-87
2023/04/17 03:59:56;;;;;;;16.58;8.30;;;;;;;;;;4933791;28;96422;-86
2023/04/17 04:02:23;;;;;;;14.15;7.78;;;;;;;;;;4956523;28;94340;-87
2023/04/17 04:04:52;;;;;;;17.13;8.15;;;;;;;;;;4922965;28;92456;-88
2023/04/17 04:07:20;;;;;;;13.65;7.60;;;;;;;;;;4958434;28;96397;-89
2023/04/17 04:09:48;;;;;;;14.35;7.55;;;;;;;;;;4958054;28;92916;-87
2023/04/17 04:12:15;;;;;;;15.18;7.90;;;;;;;;;;4940969;28;93147;-86
2023/04/17 04:14:43;;;;;;;15.70;8.65;;;;;;;;;;4960349;28;95176;-87
2023/04/17 04:17:11;;;;;;;15.43;7.57;;;;;;;;;;4945952;28;92458;-84
2023/04/17 04:19:38;;;;;;;15.63;8.75;;;;;;;;;;4961420;28;94539;-83
2023/04/17 04:22:06;;;;;;;15.82;8.18;;;;;;;;;;4943500;28;96685;-82
2023/04/17 04:24:39;;;;;;;13.98;7.30;;;;;;;;;;4965147;28;92143;-84
2023/04/17 04:27:06;;;;;;;18.08;8.52;;;;;;;;;;4951129;28;93139;-84
2023/04/17 04:29:36;;;;;;;;;;;;;;;;;;4951199;28;93251;-84
2023/04/17 04:32:08;;;;;;;14.00;7.43;;;;;;;;;;4964997;28;93854;-85
2023/04/17 04:34:40;;;;;;;15.52;8.20;;;;;;;;;;4962504;28;94468;-84
2023/04/17 04:37:07;;;;;;;16.70;8.13;;;;;;;;;;4949659;28;92455;-84
2023/04/17 04:39:46;;;;;;;14.95;7.95;;;;;;;;;;4957620;28;94537;-84
2023/04/17 04:42:20;;;;;;;15.23;8.15;;;;;;;;;;4929267;28;93299;-84
2023/04/17 04:45:03;;;;;;;13.95;7.63;;;;;;;;;;4925279;28;92428;-85
2023/04/17 04:47:30;;;;;;;16.15;8.50;;;;;;;;;;4937009;28;95517;-86
2023/04/17 04:49:57;;;;;;;17.17;8.68;;;;;;;;;;4952756;28;92548;-85
2023/04/17 04:52:25;;;;;;;15.55;8.40;;;;;;;;;;4935615;28;94266;-86
2023/04/17 04:54:55;;;;;;;14.75;7.78;;;;;;;;;;4934749;28;95729;-86
2023/04/17 04:57:22;;;;;;;17.83;8.85;;;;;;;;;;4942891;28;93177;-85
2023/04/17 04:59:54;;;;;;;16.42;8.73;;;;;;;;;;4923759;28;93812;-86
2023/04/17 05:02:30;;;;;;;14.38;7.90;;;;;;;;;;4927389;28;95584;-88
2023/04/17 05:04:57;;;;;;;15.98;8.30;;;;;;;;;;4931125;28;92126;-88
2023/04/17 05:07:24;;;;;;;15.77;7.90;;;;;;;;;;4928649;28;93890;-88
2023/04/17 05:09:52;;;;;;;16.90;9.10;;;;;;;;;;4944366;28;95308;-89
2023/04/17 05:12:19;;;;;;;16.60;8.32;;;;;;;;;;4944845;28;95293;-88
2023/04/17 05:14:46;;;;;;;15.63;8.32;;;;;;;;;;4928869;28;95822;-88
2023/04/17 05:17:13;;;;;;;;;;;;;;;;;;4925732;28;93332;-88
2023/04/17 05:19:39;;;;;;;18.98;8.57;;;;;;;;;;4943052;28;92929;-88
2023/04/17 05:22:08;;;;;;;19.25;7.63;;;;;;;;;;4940863;28;93086;-89
2023/04/17 05:24:43;;;;;;;16.13;8.20;;;;;;;;;;4940603;28;92929;-90
2023/04/17 05:27:10;;;;;;;18.20;7.97;;;;;;;;;;4944300;28;93995;-88
2023/04/17 05:29:37;;;;;;;15.38;8.00;;;;;;;;;;4945820;28;96157;-88
2023/04/17 05:32:04;;;;;;;17.67;8.73;;;;;;;;;;4930043;28;92729;-88
2023/04/17 05:34:45;;;;;;;17.20;8.45;;;;;;;;;;4946190;28;100199;-89
2023/04/17 05:37:13;;;;;;;17.67;8.65;;;;;;;;;;4928365;28;95419;-89
2023/04/17 05:39:39;;;;;;;17.08;8.80;;;;;;;;;;4930512;28;96990;-87
2023/04/17 05:42:06;;;;;;;15.93;8.30;;;;;;;;;;4927698;28;92990;-86
2023/04/17 05:44:33;;;;;;;15.20;7.85;;;;;;;;;;4935259;28;93207;-87
2023/04/17 05:46:59;;;;;;;16.40;8.45;;;;;;;;;;4926585;28;95684;-87
2023/04/17 05:49:26;;;;;;;15.20;8.13;;;;;;;;;;4943568;28;94110;-87
2023/04/17 05:51:53;;;;;;;16.70;8.50;;;;;;;;;;4942187;28;92558;-86
2023/04/17 05:54:19;;;;;;;20.38;8.65;;;;;;;;;;4931654;28;92888;-87
2023/04/17 05:56:48;;;;;;;17.40;8.88;;;;;;;;;;4949197;28;93012;-86
2023/04/17 05:59:15;;;;;;;17.30;8.32;;;;;;;;;;4955576;28;94497;-87
2023/04/17 06:01:42;;;;;;;17.13;8.95;;;;;;;;;;4926302;28;96509;-87
2023/04/17 06:04:09;;;;;;;16.27;9.05;;;;;;;;;;4942763;28;92845;-87
2023/04/17 06:06:36;;;;;;;16.50;8.90;;;;;;;;;;4942575;28;95571;-87
2023/04/17 06:09:04;;;;;;;18.38;9.48;;;;;;;;;;4944265;28;96014;-87
2023/04/17 06:11:31;;;;;;;15.93;8.75;;;;;;;;;;4932234;28;93911;-86
2023/04/17 06:13:57;;;;;;;15.80;8.15;;;;;;;;;;4933700;28;92833;-86
2023/04/17 06:16:25;;;;;;;14.55;8.07;;;;;;;;;;4935629;28;94810;-86
2023/04/17 06:18:52;;;;;;;17.85;8.88;;;;;;;;;;4950591;28;93009;-86
2023/04/17 06:21:19;;;;;;;16.75;8.70;;;;;;;;;;4935459;28;94327;-87
2023/04/17 06:23:46;;;;;;;15.70;8.30;;;;;;;;;;4934691;28;92530;-86
2023/04/17 06:26:15;;;;;;;15.65;8.27;;;;;;;;;;4930690;28;102084;-86
2023/04/17 06:28:41;;;;;;;17.13;8.48;;;;;;;;;;4934263;28;94605;-85
2023/04/17 06:31:09;;;;;;;15.85;7.85;;;;;;;;;;4950541;28;92808;-84
2023/04/17 06:33:35;;;;;;;17.10;7.97;;;;;;;;;;4934055;28;93008;-84
2023/04/17 06:36:02;;;;;;;16.42;8.45;;;;;;;;;;4947194;28;96329;-86
2023/04/17 06:38:37;;;;;;;15.75;8.10;;;;;;;;;;4949974;28;93136;-85
2023/04/17 06:41:05;;;;;;;14.57;7.60;;;;;;;;;;4947406;28;95955;-85
2023/04/17 06:43:31;;;;;;;14.45;7.32;;;;;;;;;;4935117;28;91993;-85
2023/04/17 06:46:09;;;;;;;17.25;8.52;;;;;;;;;;4946820;28;94659;-85
2023/04/17 06:48:35;;;;;;;20.60;8.38;;;;;;;;;;4947894;28;92828;-86
2023/04/17 06:51:02;;;;;;;18.17;7.97;;;;;;;;;;4944362;28;94926;-86
2023/04/17 06:53:29;;;;;;;17.35;8.25;;;;;;;;;;4930910;28;95373;-84
2023/04/17 06:55:55;;;;;;;18.95;9.82;;;;;;;;;;4930284;28;92898;-85
2023/04/17 06:58:22;;;;;;;18.83;9.40;;;;;;;;;;4929952;28;92769;-86
2023/04/17 07:00:48;;;;;;;17.98;8.90;;;;;;;;;;4930381;28;95979;-84
2023/04/17 07:03:15;;;;;;;19.70;9.50;;;;;;;;;;4951238;28;92989;-85
2023/04/17 07:05:42;;;;;;;18.50;9.50;;;;;;;;;;4945605;28;93024;-86
2023/04/17 07:08:09;;;;;;;17.15;8.68;;;;;;;;;;4928730;28;97422;-86
2023/04/17 07:10:35;;;;;;;15.80;8.75;;;;;;;;;;4931516;28;92466;-84
2023/04/17 07:13:02;;;;;;;18.75;9.52;;;;;;;;;;4929657;28;92967;-84
2023/04/17 07:15:30;;;;;;;16.73;9.00;;;;;;;;;;4927157;28;95508;-86
2023/04/17 07:17:56;;;;;;;14.45;6.47;;;;;;;;;;4941859;28;92785;-87
2023/04/17 07:20:23;;;;;;;10.50;5.38;;;;;;;;;;4962053;28;94693;-91
2023/04/17 07:22:50;;;;;;;11.82;4.80;;;;;;;;;;4954231;28;94943;-89
2023/04/17 07:25:16;;;;;;;11.23;4.43;;;;;;;;;;4938357;28;94087;-86
2023/04/17 07:27:43;;;;;;;10.00;4.05;;;;;;;;;;4933556;28;93611;-87
2023/04/17 07:30:10;;;;;;;7.80;4.00;;;;;;;;;;4938992;28;92443;-87
2023/04/17 07:32:36;;;;;;;7.90;3.92;;;;;;;;;;4960680;28;94581;-88
2023/04/17 07:35:03;;;;;;;7.82;4.00;;;;;;;;;;4937018;28;92453;-86
2023/04/17 07:37:30;;;;;;;7.30;3.80;;;;;;;;;;4933742;28;94225;-87
2023/04/17 07:39:56;;;;;;;8.02;4.10;;;;;;;;;;4939129;28;95106;-86
2023/04/17 07:42:23;;;;;;;8.00;4.00;;;;;;;;;;4951088;28;94713;-86
2023/04/17 07:44:50;;;;;;;8.00;4.10;;;;;;;;;;4944372;28;92819;-87
2023/04/17 07:47:16;;;;;;;7.88;4.07;;;;;;;;;;4944705;28;93331;-86
2023/04/17 07:49:47;;;;;;;8.13;4.13;;;;;;;;;;4940910;28;93222;-84
2023/04/17 07:52:14;;;;;;;9.23;3.92;;;;;;;;;;4946088;28;93569;-84
2023/04/17 07:54:40;;;;;;;8.05;4.07;;;;;;;;;;4946835;28;93914;-85
2023/04/17 07:57:07;;;;;;;7.63;4.00;;;;;;;;;;4948036;28;92236;-85
2023/04/17 07:59:35;;;;;;;7.80;4.00;;;;;;;;;;4947885;28;92787;-85
2023/04/17 08:02:02;;;;;;;7.85;3.90;;;;;;;;;;4944535;28;94514;-85
2023/04/17 08:04:29;;;;;;;7.55;3.85;;;;;;;;;;4945309;28;95331;-85
2023/04/17 08:06:56;;;;;;;7.78;4.00;;;;;;;;;;4937181;28;94043;-85
2023/04/17 08:09:23;;;;;;;7.50;3.83;;;;;;;;;;4945466;28;92762;-85
2023/04/17 08:11:49;;;;;;;7.43;3.85;;;;;;;;;;4945742;28;93688;-85
2023/04/17 08:14:23;;;;;;;8.30;3.53;;;;;;;;;;4945875;28;93606;-84
2023/04/17 08:16:50;;;;;;;7.70;3.90;;;;;;;;;;4946512;28;99424;-85
2023/04/17 08:19:17;;;;;;;7.80;3.90;;;;;;;;;;4948452;28;92423;-85
2023/04/17 08:21:45;;;;;;;8.00;3.92;;;;;;;;;;4947026;28;92663;-83
2023/04/17 08:24:12;;;;;;;7.68;3.78;;;;;;;;;;4947625;28;92931;-83
2023/04/17 08:26:38;;;;;;;7.45;3.63;;;;;;;;;;4946306;28;93288;-84
2023/04/17 08:29:06;;;;;;;8.00;3.92;;;;;;;;;;4951710;28;101928;-85
2023/04/17 08:31:35;;;;;;;7.95;3.70;;;;;;;;;;4945301;28;95164;-83
2023/04/17 08:34:02;;;;;;;7.78;3.85;;;;;;;;;;4938011;28;93614;-83
2023/04/17 08:36:41;;;;;;;7.70;4.00;;;;;;;;;;4951495;28;95034;-82
2023/04/17 08:39:09;;;;;;;7.45;4.05;;;;;;;;;;4935535;28;92864;-83
2023/04/17 08:41:57;;;;;;;7.60;3.90;;;;;;;;;;4946008;28;93721;-85
2023/04/17 08:44:24;;;;;;;7.05;3.63;;;;;;;;;;4947119;28;92930;-84
2023/04/17 08:46:50;;;;;;;8.68;4.07;;;;;;;;;;4948710;28;96253;-84
2023/04/17 08:49:17;;;;;;;8.55;3.80;;;;;;;;;;4949792;28;93067;-83
2023/04/17 08:51:44;;;;;;;7.50;3.95;;;;;;;;;;4946604;28;92743;-83
2023/04/17 08:54:10;;;;;;;7.22;3.80;;;;;;;;;;4945078;28;96164;-83
2023/04/17 08:56:37;;;;;;;7.88;4.05;;;;;;;;;;4945123;28;92637;-83
2023/04/17 08:59:03;;;;;;;9.05;3.97;;;;;;;;;;4945394;28;93345;-88
2023/04/17 09:01:32;;;;;;;8.68;4.13;;;;;;;;;;4945548;28;96067;-83
2023/04/17 09:03:59;;;;;;;8.50;3.90;;;;;;;;;;4945824;28;93176;-83
2023/04/17 09:06:26;;;;;;;;;;;;;;;;;;4931850;28;95780;-84
2023/04/17 09:09:02;;;;;;;10.77;3.95;;;;;;;;;;4943930;28;106672;-83
2023/04/17 09:11:29;;;;;;;8.57;4.20;;;;;;;;;;4945318;28;91864;-84
2023/04/17 09:13:55;;;;;;;9.63;4.20;;;;;;;;;;4944199;28;93750;-85
2023/04/17 09:16:24;;;;;;;12.07;4.38;;;;;;;;;;4945941;28;92722;-84
2023/04/17 09:19:03;;;;;;;9.60;4.35;;;;;;;;;;4944890;28;95106;-86
2023/04/17 09:21:29;;;;;;;8.93;4.00;;;;;;;;;;4947572;28;93050;-88
2023/04/17 09:23:58;;;;;;;7.75;3.88;;;;;;;;;;4938997;28;92629;-85
2023/04/17 09:26:25;;;;;;;6.90;3.78;;;;;;;;;;4945747;28;93221;-85
2023/04/17 09:29:09;;;;;;;7.90;3.85;;;;;;;;;;4944786;28;93226;-84
2023/04/17 09:31:38;;;;;;;9.05;3.90;;;;;;;;;;4945438;28;92870;-86
2023/04/17 09:34:10;;;;;;;20.95;4.45;;;;;;;;;;4940681;28;92920;-84
2023/04/17 09:36:38;;;;;;;16.48;4.00;;;;;;;;;;4941701;28;92324;-82
2023/04/17 09:39:14;;;;;;;8.95;3.90;;;;;;;;;;4945857;28;92899;-81
2023/04/17 09:41:41;;;;;;;8.57;3.95;;;;;;;;;;4945593;28;93033;-82
2023/04/17 09:44:08;;;;;;;7.90;3.65;;;;;;;;;;4945292;28;94877;-82
2023/04/17 09:46:44;;;;;;;13.90;3.83;;;;;;;;;;4931331;28;100530;-81
2023/04/17 09:49:14;;;;;;;11.63;3.85;;;;;;;;;;4949917;28;94174;-82
2023/04/17 09:51:41;;;;;;;7.60;3.50;;;;;;;;;;4946990;28;92945;-80
2023/04/17 09:54:10;;;;;;;7.63;3.53;;;;;;;;;;4949320;28;93507;-80
2023/04/17 09:56:38;;;;;;;10.27;3.90;;;;;;;;;;4951864;28;92966;-80
2023/04/17 09:59:05;;;;;;;;;;;;;;;;;;4949279;28;95076;-80
2023/04/17 10:01:32;;;;;;;7.43;3.55;;;;;;;;;;4951236;28;92778;-81
2023/04/17 10:04:00;;;;;;;8.43;4.00;;;;;;;;;;4949140;28;93256;-82
2023/04/17 10:06:28;;;;;;;6.85;3.50;;;;;;;;;;4945262;28;94001;-82
2023/04/17 10:08:55;;;;;;;8.90;4.20;;;;;;;;;;4948054;28;95787;-82
2023/04/17 10:11:23;;;;;;;8.50;3.80;;;;;;;;;;4941282;28;92463;-82
2023/04/17 10:13:54;;;;;;;9.32;4.05;;;;;;;;;;4948608;28;94342;-81
2023/04/17 10:16:32;;;;;;;8.45;4.20;;;;;;;;;;4948075;28;95587;-82
2023/04/17 10:19:17;;;;;;;9.13;4.28;;;;;;;;;;4930451;28;93481;-80
2023/04/17 10:21:49;;;;;;;;;;;;;;;;;;4935074;28;93102;-82
2023/04/17 10:24:23;;;;;;;7.85;3.85;;;;;;;;;;4948009;28;93139;-82
2023/04/17 10:26:49;;;;;;;7.13;3.60;;;;;;;;;;4947257;28;93665;-82
2023/04/17 10:29:17;;;;;;;8.00;4.10;;;;;;;;;;4947129;28;94179;-82
2023/04/17 10:32:02;;;;;;;8.23;3.78;;;;;;;;;;4948414;28;92517;-82
2023/04/17 10:34:36;;;;;;;8.02;4.18;;;;;;;;;;4945479;28;95126;-81
2023/04/17 10:37:03;;;;;;;7.57;3.80;;;;;;;;;;4930215;28;93953;-82
2023/04/17 10:39:50;;;;;;;7.85;3.60;;;;;;;;;;4951177;28;93569;-81
2023/04/17 10:42:19;;;;;;;7.50;3.90;;;;;;;;;;4959887;28;92957;-82
2023/04/17 10:44:46;;;;;;;7.85;3.80;;;;;;;;;;4949451;28;93117;-80
2023/04/17 10:47:15;;;;;;;8.32;3.90;;;;;;;;;;4946445;28;92783;-80
2023/04/17 10:49:48;;;;;;;8.57;3.97;;;;;;;;;;4947321;28;93213;-80
2023/04/17 10:52:33;;;;;;;8.18;3.88;;;;;;;;;;4947282;28;92333;-80
2023/04/17 10:55:03;;;;;;;8.40;3.67;;;;;;;;;;4946629;28;92842;-80
2023/04/17 10:57:48;;;;;;;6.60;3.50;;;;;;;;;;4952476;28;95649;-79
2023/04/17 11:00:15;;;;;;;7.88;3.92;;;;;;;;;;4946471;28;95543;-79
2023/04/17 11:02:46;;;;;;;7.88;3.78;;;;;;;;;;4950709;28;95264;-80
2023/04/17 11:05:12;;;;;;;7.50;3.80;;;;;;;;;;4948131;28;92771;-80
2023/04/17 11:07:40;;;;;;;7.13;3.83;;;;;;;;;;4947984;28;93138;-80
2023/04/17 11:10:08;;;;;;;8.18;3.72;;;;;;;;;;4945674;28;93037;-79
2023/04/17 11:12:35;;;;;;;6.90;3.50;;;;;;;;;;4945470;28;92660;-82
2023/04/17 11:15:02;;;;;;;6.70;3.60;;;;;;;;;;4948098;28;92680;-82
2023/04/17 11:17:29;;;;;;;6.80;3.53;;;;;;;;;;4948238;28;92596;-82
2023/04/17 11:19:56;;;;;;;7.30;3.80;;;;;;;;;;4948600;28;93104;-81
2023/04/17 11:22:22;;;;;;;7.10;3.67;;;;;;;;;;4944980;28;94563;-80
2023/04/17 11:24:50;;;;;;;10.68;4.20;;;;;;;;;;4949660;28;95913;-81
2023/04/17 11:27:16;;;;;;;7.95;3.83;;;;;;;;;;4946221;28;97905;-82
2023/04/17 11:29:43;;;;;;;7.60;3.70;;;;;;;;;;4930503;28;93518;-82
2023/04/17 11:32:11;;;;;;;7.65;3.63;;;;;;;;;;4947208;28;92805;-81
2023/04/17 11:34:37;;;;;;;6.63;3.60;;;;;;;;;;4948309;28;93874;-82
2023/04/17 11:37:04;;;;;;;7.05;3.50;;;;;;;;;;4947650;28;93086;-82
2023/04/17 11:39:31;;;;;;;9.65;3.95;;;;;;;;;;4947677;28;92719;-82
2023/04/17 11:41:59;;;;;;;11.30;4.15;;;;;;;;;;4948184;28;93973;-83
2023/04/17 11:44:25;;;;;;;;;;;;;;;;;;4928970;28;93214;-82
2023/04/17 11:46:52;;;;;;;11.60;4.25;;;;;;;;;;4952932;28;92670;-82
2023/04/17 11:49:26;;;;;;;13.57;4.82;;;;;;;;;;4946224;28;97051;-80
2023/04/17 11:51:53;;;;;;;11.30;4.43;;;;;;;;;;4945965;28;92818;-80
2023/04/17 11:54:28;;;;;;;11.23;4.30;;;;;;;;;;4945478;28;92970;-80
2023/04/17 11:56:55;;;;;;;;;;;;;;;;;;4948474;28;94015;-81
2023/04/17 11:59:32;;;;;;;10.52;4.43;;;;;;;;;;4946873;28;100223;-81
2023/04/17 12:02:02;;;;;;;10.85;4.10;;;;;;;;;;4928992;28;93871;-81
2023/04/17 12:04:32;;;;;;;10.57;4.28;;;;;;;;;;4942840;28;92998;-82
2023/04/17 12:07:03;;;;;;;10.35;4.63;;;;;;;;;;4946612;28;92133;-82
2023/04/17 12:09:30;;;;;;;9.57;4.20;;;;;;;;;;4950191;28;93091;-81
2023/04/17 12:11:58;;;;;;;9.57;4.50;;;;;;;;;;4946320;28;93221;-82
2023/04/17 12:14:24;;;;;;;8.73;4.20;;;;;;;;;;4944183;28;95136;-81
2023/04/17 12:16:51;;;;;;;10.43;4.40;;;;;;;;;;4946496;28;93167;-81
2023/04/17 12:19:21;;;;;;;9.93;4.32;;;;;;;;;;4943652;28;93885;-81
2023/04/17 12:21:48;;;;;;;9.63;4.32;;;;;;;;;;4947101;28;94055;-81
2023/04/17 12:24:16;;;;;;;9.82;4.30;;;;;;;;;;4945775;28;93060;-81
2023/04/17 12:26:45;;;;;;;8.75;4.30;;;;;;;;;;4948178;28;92940;-81
2023/04/17 12:29:11;;;;;;;9.52;4.07;;;;;;;;;;4953721;28;93031;-81
2023/04/17 12:31:39;;;;;;;9.15;4.00;;;;;;;;;;4955043;28;92052;-80
2023/04/17 12:34:05;;;;;;;8.57;4.10;;;;;;;;;;4957140;28;92935;-79
2023/04/17 12:36:32;;;;;;;9.35;4.32;;;;;;;;;;4957877;28;92833;-80
2023/04/17 12:38:59;;;;;;;9.23;3.85;;;;;;;;;;4967919;28;95275;-81
2023/04/17 12:41:26;;;;;;;;;;;;;;;;;;4969945;28;95696;-80
2023/04/17 12:43:53;;;;;;;8.10;4.13;;;;;;;;;;4969691;28;110188;-80
2023/04/17 12:46:20;;;;;;;8.13;4.28;;;;;;;;;;4966395;28;92452;-81
2023/04/17 12:48:46;;;;;;;9.60;4.25;;;;;;;;;;4966457;28;93267;-80
2023/04/17 12:51:13;;;;;;;8.40;4.32;;;;;;;;;;4966905;28;93074;-80
2023/04/17 12:53:39;;;;;;;10.60;4.65;;;;;;;;;;4955289;28;92478;-79
2023/04/17 12:56:06;;;;;;;8.45;4.00;;;;;;;;;;4955997;28;92273;-79
2023/04/17 12:58:33;;;;;;;7.28;3.70;;;;;;;;;;4961194;28;92378;-80
2023/04/17 13:00:59;;;;;;;8.23;3.95;;;;;;;;;;4940901;28;92836;-82
2023/04/17 13:03:26;;;;;;;8.25;4.00;;;;;;;;;;4951289;28;97351;-79
2023/04/17 13:05:53;;;;;;;8.07;4.10;;;;;;;;;;4953127;28;92654;-79
2023/04/17 13:08:19;;;;;;;7.53;3.80;;;;;;;;;;4959875;28;92403;-79
2023/04/17 13:10:46;;;;;;;8.63;3.90;;;;;;;;;;4930101;28;93367;-79
2023/04/17 13:13:12;;;;;;;8.75;3.70;;;;;;;;;;4950058;28;92472;-78
2023/04/17 13:15:39;;;;;;;8.25;3.85;;;;;;;;;;4947170;28;92829;-79
2023/04/17 13:18:06;;;;;;;8.32;3.90;;;;;;;;;;4943866;28;92474;-78
2023/04/17 13:20:33;;;;;;;7.47;3.60;;;;;;;;;;4946780;28;93931;-79
2023/04/17 13:23:00;;;;;;;8.27;3.78;;;;;;;;;;4950133;28;93190;-79
2023/04/17 13:25:28;;;;;;;9.02;3.88;;;;;;;;;;4946806;28;92531;-80
2023/04/17 13:27:54;;;;;;;7.93;3.42;;;;;;;;;;4943673;28;95313;-80
2023/04/17 13:30:21;;;;;;;8.90;3.83;;;;;;;;;;4945613;28;94848;-80
2023/04/17 13:32:48;;;;;;;6.75;3.47;;;;;;;;;;4946541;28;93238;-80
2023/04/17 13:35:14;;;;;;;7.32;3.63;;;;;;;;;;4931076;28;96100;-79
2023/04/17 13:37:41;;;;;;;7.03;3.70;;;;;;;;;;4944887;28;92947;-79
2023/04/17 13:40:11;;;;;;;8.18;3.90;;;;;;;;;;4927774;28;92986;-79
2023/04/17 13:42:38;;;;;;;8.43;3.83;;;;;;;;;;4946213;28;93270;-79
2023/04/17 13:45:05;;;;;;;7.75;3.90;;;;;;;;;;4946947;28;92079;-80
2023/04/17 13:47:31;;;;;;;8.15;4.03;;;;;;;;;;4946678;28;94842;-80
2023/04/17 13:49:58;;;;;;;7.85;3.58;;;;;;;;;;4946155;28;93066;-81
2023/04/17 13:52:24;;;;;;;7.65;3.70;;;;;;;;;;4944183;28;95267;-81
2023/04/17 13:54:51;;;;;;;7.10;3.70;;;;;;;;;;4948109;28;95065;-81
2023/04/17 13:57:17;;;;;;;8.45;3.75;;;;;;;;;;4951757;28;93333;-82
2023/04/17 13:59:44;;;;;;;7.00;3.40;;;;;;;;;;4948985;28;92755;-78
2023/04/17 14:02:10;;;;;;;7.50;3.80;;;;;;;;;;4949315;28;92960;-79
2023/04/17 14:04:37;;;;;;;7.93;4.00;;;;;;;;;;4945921;28;92599;-80
2023/04/17 14:07:04;;;;;;;7.22;3.80;;;;;;;;;;4951047;28;92893;-80
2023/04/17 14:09:30;;;;;;;7.53;3.70;;;;;;;;;;4950475;28;92105;-79
2023/04/17 14:11:58;;;;;;;6.63;3.22;;;;;;;;;;4950487;28;93008;-80
2023/04/17 14:14:24;;;;;;;;;;;;;;;;;;4948108;28;94255;-79
2023/04/17 14:16:50;;;;;;;7.28;3.42;;;;;;;;;;4949103;28;117941;-80
2023/04/17 14:19:17;;;;;;;7.45;3.53;;;;;;;;;;4935178;28;92453;-80
2023/04/17 14:21:44;;;;;;;6.93;3.42;;;;;;;;;;4947195;28;93043;-81
2023/04/17 14:24:10;;;;;;;7.38;3.38;;;;;;;;;;4946562;28;93272;-79
2023/04/17 14:26:37;;;;;;;7.28;3.53;;;;;;;;;;4947140;28;93230;-80
2023/04/17 14:29:06;;;;;;;6.65;3.53;;;;;;;;;;4931958;28;94509;-79
2023/04/17 14:31:33;;;;;;;7.43;3.90;;;;;;;;;;4946549;28;92699;-81
2023/04/17 14:34:01;;;;;;;7.22;3.58;;;;;;;;;;4948918;28;93571;-82
2023/04/17 14:36:27;;;;;;;5.90;3.20;;;;;;;;;;4945884;28;93992;-81
2023/04/17 14:38:54;;;;;;;7.00;3.50;;;;;;;;;;4951038;28;93031;-81
2023/04/17 14:41:21;;;;;;;6.68;3.65;;;;;;;;;;4946026;28;95543;-81
2023/04/17 14:43:47;;;;;;;7.60;3.95;;;;;;;;;;4946977;28;92849;-80